createdAt,value
2022-12-31T04:30:34.805Z,513.00
2022-12-31T04:31:34.830Z,509.00
2022-12-31T04:32:34.797Z,511.00
2022-12-31T04:33:34.781Z,510.00
2022-12-31T04:34:34.768Z,510.00
2022-12-31T04:35:34.758Z,512.00
2022-12-31T04:36:34.750Z,511.00
2022-12-31T04:37:34.739Z,509.00
2022-12-31T04:39:34.752Z,515.00
2022-12-31T04:40:34.716Z,512.00
2022-12-31T04:41:34.705Z,509.00
2022-12-31T04:42:34.718Z,507.00
2022-12-31T04:43:34.705Z,510.00
2022-12-31T04:44:34.679Z,511.00
2022-12-31T04:45:34.723Z,511.00
2022-12-31T04:46:34.663Z,515.00
2022-12-31T04:47:34.755Z,510.00
2022-12-31T04:48:34.643Z,516.00
2022-12-31T04:49:34.633Z,511.00
2022-12-31T04:50:34.622Z,510.00
2022-12-31T04:51:34.617Z,513.00
2022-12-31T04:52:40.520Z,517.00
2022-12-31T04:53:34.600Z,517.00
2022-12-31T04:54:34.594Z,517.00
2022-12-31T04:55:34.607Z,517.00
2022-12-31T04:56:34.570Z,518.00
2022-12-31T04:57:34.565Z,517.00
2022-12-31T04:58:34.553Z,513.00
2022-12-31T04:59:34.544Z,512.00
2022-12-31T05:00:34.538Z,517.00
2022-12-31T05:01:34.631Z,516.00
2022-12-31T05:02:34.729Z,515.00
2022-12-31T05:03:34.508Z,514.00
2022-12-31T05:04:34.500Z,516.00
2022-12-31T05:05:34.491Z,517.00
2022-12-31T05:06:34.486Z,518.00
2022-12-31T05:07:34.475Z,518.00
2022-12-31T05:08:34.464Z,519.00
2022-12-31T05:09:34.454Z,520.00
2022-12-31T05:10:34.454Z,515.00
2022-12-31T05:11:34.460Z,517.00
2022-12-31T05:12:34.449Z,517.00
2022-12-31T05:13:34.420Z,520.00
2022-12-31T05:14:34.407Z,517.00
2022-12-31T05:15:34.401Z,514.00
2022-12-31T05:16:34.458Z,518.00
2022-12-31T05:17:34.388Z,518.00
2022-12-31T05:18:34.379Z,514.00
2022-12-31T05:19:34.368Z,518.00
2022-12-31T05:20:34.361Z,515.00
2022-12-31T05:21:34.358Z,512.00
2022-12-31T05:22:34.336Z,520.00
2022-12-31T05:23:34.343Z,521.00
2022-12-31T05:24:34.329Z,522.00
2022-12-31T05:25:34.312Z,516.00
2022-12-31T05:26:34.307Z,518.00
2022-12-31T05:27:34.321Z,522.00
2022-12-31T05:28:34.283Z,524.00
2022-12-31T05:29:34.285Z,521.00
2022-12-31T05:30:34.335Z,523.00
2022-12-31T05:31:34.256Z,521.00
2022-12-31T05:32:34.252Z,520.00
2022-12-31T05:33:34.245Z,527.00
2022-12-31T05:34:34.231Z,525.00
2022-12-31T05:35:34.238Z,519.00
2022-12-31T05:36:34.211Z,521.00
2022-12-31T05:37:34.201Z,526.00
2022-12-31T05:38:34.196Z,522.00
2022-12-31T05:39:34.185Z,521.00
2022-12-31T05:40:34.180Z,522.00
2022-12-31T05:41:34.173Z,520.00
2022-12-31T05:42:34.159Z,517.00
2022-12-31T05:43:34.176Z,520.00
2022-12-31T05:44:34.143Z,525.00
2022-12-31T05:45:34.148Z,526.00
2022-12-31T05:46:34.142Z,524.00
2022-12-31T05:47:34.118Z,525.00
2022-12-31T05:48:34.120Z,525.00
2022-12-31T05:49:34.096Z,526.00
2022-12-31T05:50:34.090Z,525.00
2022-12-31T05:51:34.103Z,527.00
2022-12-31T05:52:34.072Z,524.00
2022-12-31T05:53:34.064Z,522.00
2022-12-31T05:54:34.060Z,526.00
2022-12-31T05:55:34.043Z,528.00
2022-12-31T05:56:34.035Z,528.00
2022-12-31T05:57:34.029Z,528.00
2022-12-31T05:58:34.015Z,530.00
2022-12-31T05:59:34.037Z,526.00
2022-12-31T06:00:33.999Z,528.00
2022-12-31T06:01:34.062Z,530.00
2022-12-31T06:02:34.007Z,531.00
2022-12-31T06:03:34.004Z,531.00
2022-12-31T06:04:33.968Z,526.00
2022-12-31T06:05:33.953Z,525.00
2022-12-31T06:06:33.966Z,534.00
2022-12-31T06:07:33.939Z,531.00
2022-12-31T06:08:33.933Z,527.00
2022-12-31T06:09:33.919Z,525.00
2022-12-31T06:10:33.911Z,530.00
2022-12-31T06:11:33.907Z,533.00
2022-12-31T06:12:33.891Z,529.00
2022-12-31T06:13:33.884Z,525.00
2022-12-31T06:14:33.872Z,532.00
2022-12-31T06:15:33.977Z,534.00
2022-12-31T06:16:33.866Z,527.00
2022-12-31T06:17:33.843Z,533.00
2022-12-31T06:18:33.833Z,530.00
2022-12-31T06:19:33.828Z,529.00
2022-12-31T06:20:33.821Z,527.00
2022-12-31T06:21:33.810Z,533.00
2022-12-31T06:22:33.806Z,530.00
2022-12-31T06:23:33.789Z,529.00
2022-12-31T06:24:33.781Z,533.00
2022-12-31T06:25:33.773Z,528.00
2022-12-31T06:26:33.768Z,530.00
2022-12-31T06:27:33.760Z,536.00
2022-12-31T06:28:33.747Z,531.00
2022-12-31T06:29:33.735Z,528.00
2022-12-31T06:30:33.732Z,533.00
2022-12-31T06:31:33.792Z,533.00
2022-12-31T06:32:33.709Z,533.00
2022-12-31T06:33:33.706Z,530.00
2022-12-31T06:34:33.693Z,535.00
2022-12-31T06:35:33.686Z,533.00
2022-12-31T06:36:33.689Z,528.00
2022-12-31T06:37:33.663Z,535.00
2022-12-31T06:38:33.664Z,531.00
2022-12-31T06:39:33.649Z,534.00
2022-12-31T06:40:33.640Z,531.00
2022-12-31T06:41:33.630Z,535.00
2022-12-31T06:42:33.618Z,531.00
2022-12-31T06:43:33.616Z,536.00
2022-12-31T06:44:33.606Z,536.00
2022-12-31T06:45:33.604Z,534.00
2022-12-31T06:46:33.657Z,529.00
2022-12-31T06:47:33.597Z,535.00
2022-12-31T06:48:33.568Z,535.00
2022-12-31T06:49:33.555Z,536.00
2022-12-31T06:50:33.552Z,532.00
2022-12-31T06:51:33.542Z,534.00
2022-12-31T06:52:33.535Z,535.00
2022-12-31T06:53:33.523Z,534.00
2022-12-31T06:54:33.515Z,534.00
2022-12-31T06:55:33.505Z,535.00
2022-12-31T06:56:34.963Z,534.00
2022-12-31T06:57:33.537Z,539.00
2022-12-31T06:58:33.536Z,536.00
2022-12-31T06:59:33.519Z,539.00
2022-12-31T07:00:33.513Z,531.00
2022-12-31T07:01:33.617Z,531.00
2022-12-31T07:02:33.571Z,530.00
2022-12-31T07:03:33.509Z,536.00
2022-12-31T07:04:33.474Z,526.00
2022-12-31T07:05:33.467Z,536.00
2022-12-31T18:24:27.312Z,521.00
2022-12-31T18:25:27.325Z,526.00
2022-12-31T19:17:26.835Z,524.00
